sensor_id;sensor_type;location;lat;lon;timestamp;temperature;humidity
46037;DHT22;31769;49.304;8.428;2022-08-03T00:02:22;22.00;99.90
46037;DHT22;31769;49.304;8.428;2022-08-03T00:05:22;22.00;99.90
46037;DHT22;31769;49.304;8.428;2022-08-03T00:08:23;21.90;99.90
46037;DHT22;31769;49.304;8.428;2022-08-03T00:11:24;21.90;99.90
46037;DHT22;31769;49.304;8.428;2022-08-03T00:14:25;21.90;99.90
46037;DHT22;31769;49.304;8.428;2022-08-03T00:17:26;21.90;99.90
46037;DHT22;31769;49.304;8.428;2022-08-03T00:20:27;21.90;99.90
46037;DHT22;31769;49.304;8.428;2022-08-03T00:23:27;21.80;99.90
46037;DHT22;31769;49.304;8.428;2022-08-03T00:26:28;21.80;99.90
46037;DHT22;31769;49.304;8.428;2022-08-03T00:29:29;21.90;99.90
46037;DHT22;31769;49.304;8.428;2022-08-03T00:32:30;21.90;99.90
46037;DHT22;31769;49.304;8.428;2022-08-03T00:35:31;21.80;99.90
46037;DHT22;31769;49.304;8.428;2022-08-03T00:38:31;21.80;99.90
46037;DHT22;31769;49.304;8.428;2022-08-03T00:41:32;21.70;99.90
46037;DHT22;31769;49.304;8.428;2022-08-03T00:44:39;21.70;99.90
46037;DHT22;31769;49.304;8.428;2022-08-03T00:47:40;21.60;99.90
46037;DHT22;31769;49.304;8.428;2022-08-03T00:50:41;21.50;99.90
46037;DHT22;31769;49.304;8.428;2022-08-03T00:53:42;21.50;99.90
46037;DHT22;31769;49.304;8.428;2022-08-03T00:56:44;21.40;99.90
46037;DHT22;31769;49.304;8.428;2022-08-03T00:59:45;21.30;99.90
46037;DHT22;31769;49.304;8.428;2022-08-03T01:02:46;21.20;99.90
46037;DHT22;31769;49.304;8.428;2022-08-03T01:09:10;21.10;99.90
46037;DHT22;31769;49.304;8.428;2022-08-03T01:12:24;21.00;99.90
46037;DHT22;31769;49.304;8.428;2022-08-03T01:15:30;20.90;99.90
46037;DHT22;31769;49.304;8.428;2022-08-03T01:28:58;20.70;99.90
46037;DHT22;31769;49.304;8.428;2022-08-03T01:32:11;20.70;99.90
46037;DHT22;31769;49.304;8.428;2022-08-03T01:35:16;20.80;99.90
46037;DHT22;31769;49.304;8.428;2022-08-03T01:38:28;20.90;99.90
46037;DHT22;31769;49.304;8.428;2022-08-03T01:41:32;20.90;99.90
46037;DHT22;31769;49.304;8.428;2022-08-03T01:44:40;21.00;99.90
46037;DHT22;31769;49.304;8.428;2022-08-03T01:47:41;21.00;99.90
46037;DHT22;31769;49.304;8.428;2022-08-03T01:50:45;21.00;99.90
46037;DHT22;31769;49.304;8.428;2022-08-03T01:53:48;21.00;99.90
46037;DHT22;31769;49.304;8.428;2022-08-03T01:56:51;21.10;99.90
46037;DHT22;31769;49.304;8.428;2022-08-03T01:59:55;21.10;99.90
46037;DHT22;31769;49.304;8.428;2022-08-03T02:02:57;21.10;99.90
46037;DHT22;31769;49.304;8.428;2022-08-03T02:05:59;21.10;99.90
46037;DHT22;31769;49.304;8.428;2022-08-03T02:09:01;21.10;99.90
46037;DHT22;31769;49.304;8.428;2022-08-03T02:12:04;21.10;99.90
46037;DHT22;31769;49.304;8.428;2022-08-03T02:15:08;21.10;99.90
46037;DHT22;31769;49.304;8.428;2022-08-03T02:18:10;21.00;99.90
46037;DHT22;31769;49.304;8.428;2022-08-03T02:21:12;21.00;99.90
46037;DHT22;31769;49.304;8.428;2022-08-03T02:24:14;21.00;99.90
46037;DHT22;31769;49.304;8.428;2022-08-03T02:27:25;20.90;99.90
46037;DHT22;31769;49.304;8.428;2022-08-03T02:30:29;20.80;99.90
46037;DHT22;31769;49.304;8.428;2022-08-03T02:33:36;20.80;99.90
46037;DHT22;31769;49.304;8.428;2022-08-03T02:36:39;20.80;99.90
46037;DHT22;31769;49.304;8.428;2022-08-03T02:39:41;20.60;99.90
46037;DHT22;31769;49.304;8.428;2022-08-03T02:46:03;20.70;99.90
46037;DHT22;31769;49.304;8.428;2022-08-03T02:49:05;20.50;99.90
46037;DHT22;31769;49.304;8.428;2022-08-03T02:52:09;20.60;99.90
46037;DHT22;31769;49.304;8.428;2022-08-03T02:55:16;20.60;99.90
46037;DHT22;31769;49.304;8.428;2022-08-03T02:58:18;20.60;99.90
46037;DHT22;31769;49.304;8.428;2022-08-03T03:01:24;20.50;99.90
46037;DHT22;31769;49.304;8.428;2022-08-03T03:04:27;20.30;99.90
46037;DHT22;31769;49.304;8.428;2022-08-03T03:07:30;20.20;99.90
46037;DHT22;31769;49.304;8.428;2022-08-03T03:10:30;20.20;99.90
46037;DHT22;31769;49.304;8.428;2022-08-03T03:13:32;20.20;99.90
46037;DHT22;31769;49.304;8.428;2022-08-03T03:16:34;20.20;99.90
46037;DHT22;31769;49.304;8.428;2022-08-03T03:19:36;20.20;99.90
46037;DHT22;31769;49.304;8.428;2022-08-03T03:22:39;20.20;99.90
46037;DHT22;31769;49.304;8.428;2022-08-03T03:25:40;20.20;99.90
46037;DHT22;31769;49.304;8.428;2022-08-03T03:28:43;20.20;99.90
46037;DHT22;31769;49.304;8.428;2022-08-03T03:31:44;20.40;99.90
46037;DHT22;31769;49.304;8.428;2022-08-03T03:34:45;20.00;99.90
46037;DHT22;31769;49.304;8.428;2022-08-03T03:37:46;19.90;99.90
46037;DHT22;31769;49.304;8.428;2022-08-03T03:40:48;20.00;99.90
46037;DHT22;31769;49.304;8.428;2022-08-03T03:43:49;19.90;99.90
46037;DHT22;31769;49.304;8.428;2022-08-03T03:46:50;19.90;99.90
46037;DHT22;31769;49.304;8.428;2022-08-03T03:49:51;19.90;99.90
46037;DHT22;31769;49.304;8.428;2022-08-03T03:52:51;19.90;99.90
46037;DHT22;31769;49.304;8.428;2022-08-03T03:55:52;19.90;99.90
46037;DHT22;31769;49.304;8.428;2022-08-03T03:58:53;19.90;99.90
46037;DHT22;31769;49.304;8.428;2022-08-03T04:01:54;19.90;99.90
46037;DHT22;31769;49.304;8.428;2022-08-03T04:04:55;20.00;99.90
46037;DHT22;31769;49.304;8.428;2022-08-03T04:08:17;20.00;99.90
46037;DHT22;31769;49.304;8.428;2022-08-03T04:11:39;20.10;99.90
46037;DHT22;31769;49.304;8.428;2022-08-03T04:14:41;20.10;99.90
46037;DHT22;31769;49.304;8.428;2022-08-03T04:17:43;20.10;99.90
46037;DHT22;31769;49.304;8.428;2022-08-03T04:20:46;20.10;99.90
46037;DHT22;31769;49.304;8.428;2022-08-03T04:23:52;20.20;99.90
46037;DHT22;31769;49.304;8.428;2022-08-03T04:26:54;20.20;99.90
46037;DHT22;31769;49.304;8.428;2022-08-03T04:29:56;20.20;99.90
46037;DHT22;31769;49.304;8.428;2022-08-03T04:33:00;20.20;99.90
46037;DHT22;31769;49.304;8.428;2022-08-03T04:36:05;20.20;99.90
46037;DHT22;31769;49.304;8.428;2022-08-03T04:39:12;20.30;99.90
46037;DHT22;31769;49.304;8.428;2022-08-03T04:42:14;20.20;99.90
46037;DHT22;31769;49.304;8.428;2022-08-03T04:45:16;20.40;99.90
46037;DHT22;31769;49.304;8.428;2022-08-03T04:48:18;20.50;99.90
46037;DHT22;31769;49.304;8.428;2022-08-03T04:51:20;20.60;99.90
46037;DHT22;31769;49.304;8.428;2022-08-03T04:54:21;20.70;99.90
46037;DHT22;31769;49.304;8.428;2022-08-03T04:57:21;20.70;99.90
46037;DHT22;31769;49.304;8.428;2022-08-03T05:00:23;20.80;99.90
46037;DHT22;31769;49.304;8.428;2022-08-03T05:03:23;20.90;99.90
46037;DHT22;31769;49.304;8.428;2022-08-03T05:06:24;21.00;99.90
46037;DHT22;31769;49.304;8.428;2022-08-03T05:09:25;21.00;99.90
46037;DHT22;31769;49.304;8.428;2022-08-03T05:12:25;21.00;99.90
46037;DHT22;31769;49.304;8.428;2022-08-03T05:15:26;21.10;99.90
46037;DHT22;31769;49.304;8.428;2022-08-03T05:18:27;21.10;99.90
46037;DHT22;31769;49.304;8.428;2022-08-03T05:21:27;21.10;99.90
46037;DHT22;31769;49.304;8.428;2022-08-03T05:24:28;21.10;99.90
46037;DHT22;31769;49.304;8.428;2022-08-03T05:27:29;21.10;99.90
46037;DHT22;31769;49.304;8.428;2022-08-03T05:30:30;21.10;99.90
46037;DHT22;31769;49.304;8.428;2022-08-03T05:33:30;21.10;99.90
46037;DHT22;31769;49.304;8.428;2022-08-03T05:36:31;21.20;99.90
46037;DHT22;31769;49.304;8.428;2022-08-03T05:39:33;21.30;99.90
46037;DHT22;31769;49.304;8.428;2022-08-03T05:42:36;21.30;99.90
46037;DHT22;31769;49.304;8.428;2022-08-03T05:45:37;21.30;99.90
46037;DHT22;31769;49.304;8.428;2022-08-03T05:48:38;21.40;99.90
46037;DHT22;31769;49.304;8.428;2022-08-03T05:51:38;21.30;99.90
46037;DHT22;31769;49.304;8.428;2022-08-03T05:54:39;21.40;99.90
46037;DHT22;31769;49.304;8.428;2022-08-03T05:57:40;21.50;99.90
46037;DHT22;31769;49.304;8.428;2022-08-03T06:00:40;21.70;99.90
46037;DHT22;31769;49.304;8.428;2022-08-03T06:03:41;21.80;99.90
46037;DHT22;31769;49.304;8.428;2022-08-03T06:06:42;22.00;99.90
46037;DHT22;31769;49.304;8.428;2022-08-03T06:09:43;22.10;99.90
46037;DHT22;31769;49.304;8.428;2022-08-03T06:12:43;22.10;99.90
46037;DHT22;31769;49.304;8.428;2022-08-03T06:15:47;22.20;99.90
46037;DHT22;31769;49.304;8.428;2022-08-03T06:18:47;22.20;99.90
46037;DHT22;31769;49.304;8.428;2022-08-03T06:21:48;22.30;99.90
46037;DHT22;31769;49.304;8.428;2022-08-03T06:24:49;22.50;99.90
46037;DHT22;31769;49.304;8.428;2022-08-03T06:27:50;22.80;99.90
46037;DHT22;31769;49.304;8.428;2022-08-03T06:30:50;22.90;99.90
46037;DHT22;31769;49.304;8.428;2022-08-03T06:33:51;23.00;99.90
46037;DHT22;31769;49.304;8.428;2022-08-03T06:36:52;23.00;99.90
46037;DHT22;31769;49.304;8.428;2022-08-03T06:39:53;23.00;99.90
46037;DHT22;31769;49.304;8.428;2022-08-03T06:42:59;23.00;99.90
46037;DHT22;31769;49.304;8.428;2022-08-03T06:46:00;23.00;99.90
46037;DHT22;31769;49.304;8.428;2022-08-03T06:49:00;23.10;99.90
46037;DHT22;31769;49.304;8.428;2022-08-03T06:52:01;23.30;99.90
46037;DHT22;31769;49.304;8.428;2022-08-03T06:55:03;23.60;99.90
46037;DHT22;31769;49.304;8.428;2022-08-03T06:58:03;23.90;99.90
46037;DHT22;31769;49.304;8.428;2022-08-03T07:01:04;24.20;99.90
46037;DHT22;31769;49.304;8.428;2022-08-03T07:04:05;24.40;99.90
46037;DHT22;31769;49.304;8.428;2022-08-03T07:07:05;24.50;99.70
46037;DHT22;31769;49.304;8.428;2022-08-03T07:10:07;24.80;98.90
46037;DHT22;31769;49.304;8.428;2022-08-03T07:13:08;24.90;98.20
46037;DHT22;31769;49.304;8.428;2022-08-03T07:16:08;25.00;98.00
46037;DHT22;31769;49.304;8.428;2022-08-03T07:19:09;25.10;97.30
46037;DHT22;31769;49.304;8.428;2022-08-03T07:22:10;25.20;96.50
46037;DHT22;31769;49.304;8.428;2022-08-03T07:25:10;25.40;95.20
46037;DHT22;31769;49.304;8.428;2022-08-03T07:28:11;25.50;94.40
46037;DHT22;31769;49.304;8.428;2022-08-03T07:31:12;25.70;94.20
46037;DHT22;31769;49.304;8.428;2022-08-03T07:34:13;25.80;93.10
46037;DHT22;31769;49.304;8.428;2022-08-03T07:37:13;25.90;92.50
46037;DHT22;31769;49.304;8.428;2022-08-03T07:40:14;26.00;91.90
46037;DHT22;31769;49.304;8.428;2022-08-03T07:43:17;26.10;91.50
46037;DHT22;31769;49.304;8.428;2022-08-03T07:46:17;26.00;91.30
46037;DHT22;31769;49.304;8.428;2022-08-03T07:49:18;26.20;91.40
46037;DHT22;31769;49.304;8.428;2022-08-03T07:52:19;26.30;91.50
46037;DHT22;31769;49.304;8.428;2022-08-03T07:55:38;26.40;91.40
46037;DHT22;31769;49.304;8.428;2022-08-03T07:58:39;26.60;90.90
46037;DHT22;31769;49.304;8.428;2022-08-03T08:01:40;26.60;90.40
46037;DHT22;31769;49.304;8.428;2022-08-03T08:04:40;26.60;90.10
46037;DHT22;31769;49.304;8.428;2022-08-03T08:07:41;26.80;89.70
46037;DHT22;31769;49.304;8.428;2022-08-03T08:10:42;26.90;89.30
46037;DHT22;31769;49.304;8.428;2022-08-03T08:13:42;27.00;89.40
46037;DHT22;31769;49.304;8.428;2022-08-03T08:16:43;27.10;88.90
46037;DHT22;31769;49.304;8.428;2022-08-03T08:19:44;27.10;87.60
46037;DHT22;31769;49.304;8.428;2022-08-03T08:22:45;27.20;87.00
46037;DHT22;31769;49.304;8.428;2022-08-03T08:25:45;27.30;86.40
46037;DHT22;31769;49.304;8.428;2022-08-03T08:28:46;27.30;86.20
46037;DHT22;31769;49.304;8.428;2022-08-03T08:31:47;27.40;84.80
46037;DHT22;31769;49.304;8.428;2022-08-03T08:34:49;27.60;84.60
46037;DHT22;31769;49.304;8.428;2022-08-03T08:37:50;27.80;83.60
46037;DHT22;31769;49.304;8.428;2022-08-03T08:40:53;27.80;84.00
46037;DHT22;31769;49.304;8.428;2022-08-03T08:43:54;27.80;84.00
46037;DHT22;31769;49.304;8.428;2022-08-03T08:46:55;27.80;83.10
46037;DHT22;31769;49.304;8.428;2022-08-03T08:49:58;28.00;82.30
46037;DHT22;31769;49.304;8.428;2022-08-03T08:53:01;28.10;81.60
46037;DHT22;31769;49.304;8.428;2022-08-03T08:56:04;28.20;81.90
46037;DHT22;31769;49.304;8.428;2022-08-03T08:59:07;28.20;81.50
46037;DHT22;31769;49.304;8.428;2022-08-03T09:02:08;28.30;80.00
46037;DHT22;31769;49.304;8.428;2022-08-03T09:05:13;28.40;80.70
46037;DHT22;31769;49.304;8.428;2022-08-03T09:08:14;28.50;80.00
46037;DHT22;31769;49.304;8.428;2022-08-03T09:11:15;28.50;78.10
46037;DHT22;31769;49.304;8.428;2022-08-03T09:14:19;28.60;78.60
46037;DHT22;31769;49.304;8.428;2022-08-03T09:17:20;28.70;77.20
46037;DHT22;31769;49.304;8.428;2022-08-03T09:20:22;28.80;76.20
46037;DHT22;31769;49.304;8.428;2022-08-03T09:23:23;28.80;76.60
46037;DHT22;31769;49.304;8.428;2022-08-03T09:26:26;29.00;76.50
46037;DHT22;31769;49.304;8.428;2022-08-03T09:29:31;29.10;75.30
46037;DHT22;31769;49.304;8.428;2022-08-03T09:32:36;29.20;74.40
46037;DHT22;31769;49.304;8.428;2022-08-03T09:35:41;29.30;73.50
46037;DHT22;31769;49.304;8.428;2022-08-03T09:39:00;29.50;73.90
46037;DHT22;31769;49.304;8.428;2022-08-03T09:45:25;29.70;72.10
46037;DHT22;31769;49.304;8.428;2022-08-03T09:48:27;29.80;70.90
46037;DHT22;31769;49.304;8.428;2022-08-03T09:51:31;29.90;70.50
46037;DHT22;31769;49.304;8.428;2022-08-03T09:54:31;29.90;69.10
46037;DHT22;31769;49.304;8.428;2022-08-03T09:57:33;30.00;69.80
46037;DHT22;31769;49.304;8.428;2022-08-03T10:04:00;30.20;68.40
46037;DHT22;31769;49.304;8.428;2022-08-03T10:07:09;30.20;68.20
46037;DHT22;31769;49.304;8.428;2022-08-03T10:10:12;30.30;67.60
46037;DHT22;31769;49.304;8.428;2022-08-03T10:13:15;30.40;68.00
46037;DHT22;31769;49.304;8.428;2022-08-03T10:16:16;30.60;68.10
46037;DHT22;31769;49.304;8.428;2022-08-03T10:19:16;30.80;67.20
46037;DHT22;31769;49.304;8.428;2022-08-03T10:22:21;31.10;66.90
46037;DHT22;31769;49.304;8.428;2022-08-03T10:25:22;31.20;66.50
46037;DHT22;31769;49.304;8.428;2022-08-03T10:28:23;31.20;67.40
46037;DHT22;31769;49.304;8.428;2022-08-03T10:31:25;31.00;68.30
46037;DHT22;31769;49.304;8.428;2022-08-03T10:34:34;31.00;67.90
46037;DHT22;31769;49.304;8.428;2022-08-03T10:37:41;31.00;68.20
46037;DHT22;31769;49.304;8.428;2022-08-03T10:40:43;31.10;68.30
46037;DHT22;31769;49.304;8.428;2022-08-03T10:44:16;31.10;69.00
46037;DHT22;31769;49.304;8.428;2022-08-03T10:47:17;31.30;68.80
46037;DHT22;31769;49.304;8.428;2022-08-03T10:50:19;31.50;67.90
46037;DHT22;31769;49.304;8.428;2022-08-03T10:53:36;31.60;68.00
46037;DHT22;31769;49.304;8.428;2022-08-03T10:56:38;31.60;68.00
46037;DHT22;31769;49.304;8.428;2022-08-03T10:59:58;31.60;67.00
46037;DHT22;31769;49.304;8.428;2022-08-03T11:03:08;31.70;67.00
46037;DHT22;31769;49.304;8.428;2022-08-03T11:06:20;31.80;66.40
46037;DHT22;31769;49.304;8.428;2022-08-03T11:09:21;31.80;66.30
46037;DHT22;31769;49.304;8.428;2022-08-03T11:12:30;31.60;66.20
46037;DHT22;31769;49.304;8.428;2022-08-03T11:15:32;31.60;66.70
46037;DHT22;31769;49.304;8.428;2022-08-03T11:18:33;31.60;65.90
46037;DHT22;31769;49.304;8.428;2022-08-03T11:24:56;32.10;66.20
46037;DHT22;31769;49.304;8.428;2022-08-03T11:28:23;32.40;67.20
46037;DHT22;31769;49.304;8.428;2022-08-03T11:34:25;32.80;65.50
46037;DHT22;31769;49.304;8.428;2022-08-03T11:37:26;33.00;64.50
46037;DHT22;31769;49.304;8.428;2022-08-03T11:46:43;33.00;64.40
46037;DHT22;31769;49.304;8.428;2022-08-03T11:49:49;33.10;64.00
46037;DHT22;31769;49.304;8.428;2022-08-03T11:52:49;32.90;64.30
46037;DHT22;31769;49.304;8.428;2022-08-03T11:55:51;32.90;64.20
46037;DHT22;31769;49.304;8.428;2022-08-03T11:58:57;33.30;63.70
46037;DHT22;31769;49.304;8.428;2022-08-03T12:02:05;33.40;62.70
46037;DHT22;31769;49.304;8.428;2022-08-03T12:05:06;33.80;63.30
46037;DHT22;31769;49.304;8.428;2022-08-03T12:08:08;34.10;61.80
46037;DHT22;31769;49.304;8.428;2022-08-03T12:11:11;34.30;61.70
46037;DHT22;31769;49.304;8.428;2022-08-03T12:14:16;34.70;61.70
46037;DHT22;31769;49.304;8.428;2022-08-03T12:17:17;34.80;61.00
46037;DHT22;31769;49.304;8.428;2022-08-03T12:20:24;34.80;60.00
46037;DHT22;31769;49.304;8.428;2022-08-03T12:23:26;34.70;60.60
46037;DHT22;31769;49.304;8.428;2022-08-03T12:26:29;34.80;60.00
46037;DHT22;31769;49.304;8.428;2022-08-03T12:29:29;34.80;59.40
46037;DHT22;31769;49.304;8.428;2022-08-03T12:32:30;34.80;59.50
46037;DHT22;31769;49.304;8.428;2022-08-03T12:35:31;34.90;58.90
46037;DHT22;31769;49.304;8.428;2022-08-03T12:38:33;35.40;58.70
46037;DHT22;31769;49.304;8.428;2022-08-03T12:41:36;37.50;56.60
46037;DHT22;31769;49.304;8.428;2022-08-03T12:44:37;40.60;53.30
46037;DHT22;31769;49.304;8.428;2022-08-03T12:47:55;42.50;47.90
46037;DHT22;31769;49.304;8.428;2022-08-03T12:51:07;44.30;45.70
46037;DHT22;31769;49.304;8.428;2022-08-03T12:54:22;45.90;42.90
46037;DHT22;31769;49.304;8.428;2022-08-03T12:57:23;46.70;41.90
46037;DHT22;31769;49.304;8.428;2022-08-03T13:00:24;48.00;40.10
46037;DHT22;31769;49.304;8.428;2022-08-03T13:03:27;49.60;38.40
46037;DHT22;31769;49.304;8.428;2022-08-03T13:06:28;50.80;37.10
46037;DHT22;31769;49.304;8.428;2022-08-03T13:09:29;51.60;36.20
46037;DHT22;31769;49.304;8.428;2022-08-03T13:12:32;52.10;35.60
46037;DHT22;31769;49.304;8.428;2022-08-03T13:15:32;51.50;35.30
46037;DHT22;31769;49.304;8.428;2022-08-03T13:18:33;52.40;35.20
46037;DHT22;31769;49.304;8.428;2022-08-03T13:21:34;53.60;34.40
46037;DHT22;31769;49.304;8.428;2022-08-03T13:24:34;54.80;33.30
46037;DHT22;31769;49.304;8.428;2022-08-03T13:27:35;54.40;32.90
46037;DHT22;31769;49.304;8.428;2022-08-03T13:30:36;54.20;33.00
46037;DHT22;31769;49.304;8.428;2022-08-03T13:33:36;53.60;32.90
46037;DHT22;31769;49.304;8.428;2022-08-03T13:36:39;52.30;33.20
46037;DHT22;31769;49.304;8.428;2022-08-03T13:39:40;51.80;33.40
46037;DHT22;31769;49.304;8.428;2022-08-03T13:42:41;52.30;33.30
46037;DHT22;31769;49.304;8.428;2022-08-03T13:45:42;51.80;33.70
46037;DHT22;31769;49.304;8.428;2022-08-03T13:48:43;53.80;33.00
46037;DHT22;31769;49.304;8.428;2022-08-03T13:51:43;55.50;32.00
46037;DHT22;31769;49.304;8.428;2022-08-03T13:54:44;57.10;31.40
46037;DHT22;31769;49.304;8.428;2022-08-03T13:57:45;58.00;30.30
46037;DHT22;31769;49.304;8.428;2022-08-03T14:00:46;56.90;30.50
46037;DHT22;31769;49.304;8.428;2022-08-03T14:03:47;55.30;31.40
46037;DHT22;31769;49.304;8.428;2022-08-03T14:06:51;54.50;31.60
46037;DHT22;31769;49.304;8.428;2022-08-03T14:09:52;53.90;31.50
46037;DHT22;31769;49.304;8.428;2022-08-03T14:12:53;54.00;31.80
46037;DHT22;31769;49.304;8.428;2022-08-03T14:15:55;55.20;31.00
46037;DHT22;31769;49.304;8.428;2022-08-03T14:18:55;55.50;30.90
46037;DHT22;31769;49.304;8.428;2022-08-03T14:21:57;56.30;30.60
46037;DHT22;31769;49.304;8.428;2022-08-03T14:24:58;56.60;30.60
46037;DHT22;31769;49.304;8.428;2022-08-03T14:27:58;56.80;30.10
46037;DHT22;31769;49.304;8.428;2022-08-03T14:31:00;57.30;30.00
46037;DHT22;31769;49.304;8.428;2022-08-03T14:34:01;58.20;29.90
46037;DHT22;31769;49.304;8.428;2022-08-03T14:37:01;59.10;29.40
46037;DHT22;31769;49.304;8.428;2022-08-03T14:40:02;58.40;29.70
46037;DHT22;31769;49.304;8.428;2022-08-03T14:43:03;58.30;29.60
46037;DHT22;31769;49.304;8.428;2022-08-03T14:46:04;57.60;29.90
46037;DHT22;31769;49.304;8.428;2022-08-03T14:49:06;58.30;29.50
46037;DHT22;31769;49.304;8.428;2022-08-03T14:52:07;57.50;29.60
46037;DHT22;31769;49.304;8.428;2022-08-03T14:55:09;57.50;29.90
46037;DHT22;31769;49.304;8.428;2022-08-03T14:58:09;58.50;29.40
46037;DHT22;31769;49.304;8.428;2022-08-03T15:01:10;54.90;30.20
46037;DHT22;31769;49.304;8.428;2022-08-03T15:04:11;53.50;31.20
46037;DHT22;31769;49.304;8.428;2022-08-03T15:07:12;54.60;30.30
46037;DHT22;31769;49.304;8.428;2022-08-03T15:10:13;55.60;30.00
46037;DHT22;31769;49.304;8.428;2022-08-03T15:13:13;56.20;29.70
46037;DHT22;31769;49.304;8.428;2022-08-03T15:16:14;54.40;30.20
46037;DHT22;31769;49.304;8.428;2022-08-03T15:19:18;53.80;30.30
46037;DHT22;31769;49.304;8.428;2022-08-03T15:22:18;54.70;30.20
46037;DHT22;31769;49.304;8.428;2022-08-03T15:25:19;56.10;29.80
46037;DHT22;31769;49.304;8.428;2022-08-03T15:28:20;57.60;29.40
46037;DHT22;31769;49.304;8.428;2022-08-03T15:31:22;58.00;29.10
46037;DHT22;31769;49.304;8.428;2022-08-03T15:34:23;57.90;29.10
46037;DHT22;31769;49.304;8.428;2022-08-03T15:37:24;56.00;29.80
46037;DHT22;31769;49.304;8.428;2022-08-03T15:40:24;55.30;29.70
46037;DHT22;31769;49.304;8.428;2022-08-03T15:43:25;55.90;29.60
46037;DHT22;31769;49.304;8.428;2022-08-03T15:46:26;54.60;30.00
46037;DHT22;31769;49.304;8.428;2022-08-03T15:49:27;55.20;29.70
46037;DHT22;31769;49.304;8.428;2022-08-03T15:52:28;56.60;29.40
46037;DHT22;31769;49.304;8.428;2022-08-03T15:55:29;57.80;29.20
46037;DHT22;31769;49.304;8.428;2022-08-03T15:58:30;58.50;28.90
46037;DHT22;31769;49.304;8.428;2022-08-03T16:01:31;57.90;28.80
46037;DHT22;31769;49.304;8.428;2022-08-03T16:04:32;56.60;29.40
46037;DHT22;31769;49.304;8.428;2022-08-03T16:07:33;56.70;29.30
46037;DHT22;31769;49.304;8.428;2022-08-03T16:10:43;57.10;29.30
46037;DHT22;31769;49.304;8.428;2022-08-03T16:13:45;57.40;29.20
46037;DHT22;31769;49.304;8.428;2022-08-03T16:16:46;57.70;29.10
46037;DHT22;31769;49.304;8.428;2022-08-03T16:19:46;57.80;29.10
46037;DHT22;31769;49.304;8.428;2022-08-03T16:22:48;58.10;29.10
46037;DHT22;31769;49.304;8.428;2022-08-03T16:25:49;57.70;29.10
46037;DHT22;31769;49.304;8.428;2022-08-03T16:28:50;57.40;29.20
46037;DHT22;31769;49.304;8.428;2022-08-03T16:31:51;57.50;29.10
46037;DHT22;31769;49.304;8.428;2022-08-03T16:34:52;57.70;29.10
46037;DHT22;31769;49.304;8.428;2022-08-03T16:37:53;57.30;29.20
46037;DHT22;31769;49.304;8.428;2022-08-03T16:40:54;57.00;29.30
46037;DHT22;31769;49.304;8.428;2022-08-03T16:43:55;56.40;29.20
46037;DHT22;31769;49.304;8.428;2022-08-03T16:46:56;53.60;30.10
46037;DHT22;31769;49.304;8.428;2022-08-03T16:49:58;51.90;31.10
46037;DHT22;31769;49.304;8.428;2022-08-03T16:52:58;51.60;31.30
46037;DHT22;31769;49.304;8.428;2022-08-03T16:55:59;52.20;30.90
46037;DHT22;31769;49.304;8.428;2022-08-03T16:59:00;53.00;30.40
46037;DHT22;31769;49.304;8.428;2022-08-03T17:02:02;53.20;30.40
46037;DHT22;31769;49.304;8.428;2022-08-03T17:05:03;50.90;31.60
46037;DHT22;31769;49.304;8.428;2022-08-03T17:08:04;48.90;32.50
46037;DHT22;31769;49.304;8.428;2022-08-03T17:11:06;49.00;32.60
46037;DHT22;31769;49.304;8.428;2022-08-03T17:14:07;49.50;32.40
46037;DHT22;31769;49.304;8.428;2022-08-03T17:17:16;49.10;32.50
46037;DHT22;31769;49.304;8.428;2022-08-03T17:20:20;48.90;32.70
46037;DHT22;31769;49.304;8.428;2022-08-03T17:24:17;48.40;32.90
46037;DHT22;31769;49.304;8.428;2022-08-03T17:27:13;47.80;33.30
46037;DHT22;31769;49.304;8.428;2022-08-03T17:30:15;47.30;33.90
46037;DHT22;31769;49.304;8.428;2022-08-03T17:33:17;46.70;34.20
46037;DHT22;31769;49.304;8.428;2022-08-03T17:36:18;46.10;34.70
46037;DHT22;31769;49.304;8.428;2022-08-03T17:39:24;45.30;35.50
46037;DHT22;31769;49.304;8.428;2022-08-03T17:42:26;44.20;36.50
46037;DHT22;31769;49.304;8.428;2022-08-03T17:45:27;43.50;37.10
46037;DHT22;31769;49.304;8.428;2022-08-03T17:48:30;42.60;37.90
46037;DHT22;31769;49.304;8.428;2022-08-03T17:51:44;42.10;38.50
46037;DHT22;31769;49.304;8.428;2022-08-03T17:55:07;41.50;38.90
46037;DHT22;31769;49.304;8.428;2022-08-03T17:58:14;40.90;39.90
46037;DHT22;31769;49.304;8.428;2022-08-03T18:01:24;40.50;39.50
46037;DHT22;31769;49.304;8.428;2022-08-03T18:04:51;39.80;40.60
46037;DHT22;31769;49.304;8.428;2022-08-03T18:07:56;39.20;41.40
46037;DHT22;31769;49.304;8.428;2022-08-03T18:11:10;38.50;42.00
46037;DHT22;31769;49.304;8.428;2022-08-03T18:14:15;38.20;42.40
46037;DHT22;31769;49.304;8.428;2022-08-03T18:17:22;37.70;42.60
46037;DHT22;31769;49.304;8.428;2022-08-03T18:20:27;37.30;43.30
46037;DHT22;31769;49.304;8.428;2022-08-03T18:23:28;37.00;43.90
46037;DHT22;31769;49.304;8.428;2022-08-03T18:26:29;36.70;45.80
46037;DHT22;31769;49.304;8.428;2022-08-03T18:29:33;36.40;47.50
46037;DHT22;31769;49.304;8.428;2022-08-03T18:32:36;36.00;49.10
46037;DHT22;31769;49.304;8.428;2022-08-03T18:35:38;35.70;49.70
46037;DHT22;31769;49.304;8.428;2022-08-03T18:38:41;35.50;50.10
46037;DHT22;31769;49.304;8.428;2022-08-03T18:41:42;35.20;49.40
46037;DHT22;31769;49.304;8.428;2022-08-03T18:44:43;35.00;48.90
46037;DHT22;31769;49.304;8.428;2022-08-03T18:47:54;34.80;48.50
46037;DHT22;31769;49.304;8.428;2022-08-03T18:51:03;34.60;48.40
46037;DHT22;31769;49.304;8.428;2022-08-03T18:54:19;34.40;48.30
46037;DHT22;31769;49.304;8.428;2022-08-03T18:57:32;34.30;48.20
46037;DHT22;31769;49.304;8.428;2022-08-03T19:00:44;34.00;51.60
46037;DHT22;31769;49.304;8.428;2022-08-03T19:03:46;33.50;52.80
46037;DHT22;31769;49.304;8.428;2022-08-03T19:06:57;33.10;53.40
46037;DHT22;31769;49.304;8.428;2022-08-03T19:10:05;32.90;53.60
46037;DHT22;31769;49.304;8.428;2022-08-03T19:13:18;32.60;53.70
46037;DHT22;31769;49.304;8.428;2022-08-03T19:16:38;32.50;54.00
46037;DHT22;31769;49.304;8.428;2022-08-03T19:19:43;32.30;54.80
46037;DHT22;31769;49.304;8.428;2022-08-03T19:22:44;32.10;55.90
46037;DHT22;31769;49.304;8.428;2022-08-03T19:25:47;31.90;56.70
46037;DHT22;31769;49.304;8.428;2022-08-03T19:28:49;31.80;56.80
46037;DHT22;31769;49.304;8.428;2022-08-03T19:31:54;31.60;56.90
46037;DHT22;31769;49.304;8.428;2022-08-03T19:34:58;31.50;57.40
46037;DHT22;31769;49.304;8.428;2022-08-03T19:37:59;31.30;59.20
46037;DHT22;31769;49.304;8.428;2022-08-03T19:41:02;31.10;60.10
46037;DHT22;31769;49.304;8.428;2022-08-03T19:44:05;31.00;60.60
46037;DHT22;31769;49.304;8.428;2022-08-03T19:47:43;30.90;61.20
46037;DHT22;31769;49.304;8.428;2022-08-03T19:50:41;30.70;61.80
46037;DHT22;31769;49.304;8.428;2022-08-03T19:53:45;30.60;62.40